Aérodrome :
LOGIN :

S'inscrire | Disclaimer

   EN    FR    IT 

 










Légende :    VFR   VFR Marginal   IFR   IFR Intensif   IFR Très Intensif
Visi : 
Plafond : 
>= 8 km
>= 3000ft
5 à 8 km
1000 à 3000 ft
1500m à 5 km
500 à 1000 ft
800 à 1500m
200 à 500 ft
< 800m
< 200 ft
Symboles :   Orages  Brouillard  Fortes neiges  Fortes précipitations  Vent > 20 kt
SIGMETs :   Divers  Orages  Givrage  Turbulence  Onde Orograph.  Cendres Volcan.







- Altitude de l'aérodrome : 308 ft
- Code IATA : POZ


EPPO - Poznan-Lawica

DERNIER METAR :
  • 251530Z 31008KT 9999 FEW008 BKN047 04/02 Q1012

METARs EXPIRÉS :
  • 251500Z 31006KT 280V350 9999 BKN009 04/02 Q1012
  • 251430Z 31009KT 9999 -RA BKN009 04/02 Q1012
  • 251400Z 31012KT 9999 -RA BKN008 03/02 Q1012
  • 251330Z 29011KT 9999 -RA BKN009 03/02 Q1011
  • 251300Z 29014KT 9999 -RA BKN009 03/01 Q1011

TAF TAF EPPO
Valide du 25 à 12h jusqu'au 26 à 12h UTC


251130Z 2512/2612 28015KT 9999 BKN018
TEMPO 2512/2520 3000 SHRA SHGS BKN004 BKN012CB
PROB30
TEMPO 2512/2516 30018G28KT 2000 TSRA BKN008CB
BECMG 2515/2518 34010KT
TEMPO 2520/2609 4000 BR BKN004
BECMG 2603/2606 27014KT
TEMPO 2609/2612 28020G33KT SHRA BKN007 BKN013CB
Pas de NOTAMs connus pour ce terrain.



MET'MAP, la Météo Aéronautique d'un coup d'oeil ! - Copyright ORBIFLY Décembre 2007 - Disclaimer

ORBIFLY MET'MAP TEAM :

Programmation & Développement : Alexandra Zaïnal
Conception & Développement : Baudouin d'Aumeries
Co-Programmation & Développement : Marc-Olivier Méhu
Soutien technique & logistique : Manuel Goepfert

Contact : metmap@orbifly.com




SOURCES & CREDITS :

   NOAA